KMZH

Moose Lake Carlton County Airport

Moose Lake, Minnesota, USA
METAR KMZH 212155Z AUTO 05006KT 10SM CLR 22/13 A2993 RMK AO2
Observed Flight Rules
Jun-21 @ 21:55 UTC (12 minutes ago) Visual Flight Rules
Wind Visibility Clouds
50° at 6 knots 10 miles
  • Clear skies
Temperatures Readings
Current 22°C / 72°F
Dewpoint 13°C / 55°F
Humidity 57%
Altimeter 29.93" Hg
Pressure 1014 hPa
Elevation 328
METAR KMZH 212155Z AUTO 05006KT 10SM CLR 22/13 A2993 RMK AO2
Observed Flight Rules
Jun-21 @ 21:55 UTC
(12 minutes ago)
VFR
Wind Visibility
50° at 6 knots 10 miles
Clouds
  • Clear skies
Temperature Dewpoint
22°C / 72°F 13°C / 55°F
Humidity Altimeter Pressure
57% 29.93" Hg 1014 hPa